PWSweather.com
Personal Weather Stations
Station Observations
WD4JKH
Forsyth, GA 31029

Forsyth, GA 31029

Lat: 33.033225, Lon: -83.927995

Elevation: 709

Station Type: Davis Vantage VUE

High Low Average
Temperature 77.5°F25.3°C 51.9°F11.1°C 62.6°F17.0°C
Dew Point 69.4°F20.8°C 51.1°F10.6°C 60.3°F15.7°C
Winds 12.2 mph 19.6 kmh Calm Calm 4.0 mph SSE6.4 kmh SSE
Wind Gusts 21.0 mph33.8 kmh 1.0 mph1.6 kmh 8.0 mph12.9 kmh
Humidity 99% 67% 93%
Pressure 30.24 in1024.0 mb 30.08 in1018.6 mb -
Precipitation 0.06 in1.5 mm - -
Hour Temp Dew Point Humidity Winds Wind Gusts Pressure Precip Precip Rate Daily Precip Total
12:02 AM 63.9°F17.7°C 63.6°F17.6°C 99% Calm Calm 1.0 mph1.6 kmh 30.11 in1019.6 mb 0.00 in0.0 mm 0.00 in0.0 mm 0.06 in1.5 mm
12:07 AM 63.9°F17.7°C 63.6°F17.6°C 99% 1.0 mph SW1.6 kmh SW 1.0 mph1.6 kmh 30.11 in1019.6 mb 0.00 in0.0 mm 0.00 in0.0 mm 0.00 in0.0 mm
12:12 AM 63.9°F17.7°C 63.6°F17.6°C 99% Calm Calm 1.0 mph1.6 kmh 30.11 in1019.6 mb 0.00 in0.0 mm 0.00 in0.0 mm 0.00 in0.0 mm
12:17 AM 63.8°F17.7°C 63.5°F17.5°C 99% Calm Calm 1.0 mph1.6 kmh 30.11 in1019.6 mb 0.00 in0.0 mm 0.00 in0.0 mm 0.00 in0.0 mm
12:22 AM 63.7°F17.6°C 63.4°F17.4°C 99% Calm Calm 1.0 mph1.6 kmh 30.11 in1019.6 mb 0.00 in0.0 mm 0.00 in0.0 mm 0.00 in0.0 mm
12:27 AM 63.7°F17.6°C 63.4°F17.4°C 99% 1.0 mph SE1.6 kmh SE 1.0 mph1.6 kmh 30.11 in1019.6 mb 0.00 in0.0 mm 0.00 in0.0 mm 0.00 in0.0 mm
12:32 AM 63.6°F17.6°C 63.3°F17.4°C 99% 1.2 mph SE1.9 kmh SE 2.0 mph3.2 kmh 30.11 in1019.6 mb 0.00 in0.0 mm 0.00 in0.0 mm 0.00 in0.0 mm
12:37 AM 63.6°F17.6°C 63.3°F17.4°C 99% 1.0 mph ESE1.6 kmh ESE 2.0 mph3.2 kmh 30.11 in1019.6 mb 0.00 in0.0 mm 0.00 in0.0 mm 0.00 in0.0 mm
12:42 AM 63.6°F17.6°C 63.3°F17.4°C 99% 1.0 mph SE1.6 kmh SE 2.0 mph3.2 kmh 30.11 in1019.6 mb 0.00 in0.0 mm 0.00 in0.0 mm 0.00 in0.0 mm
12:47 AM 63.5°F17.5°C 63.2°F17.3°C 99% 1.0 mph SE1.6 kmh SE 2.0 mph3.2 kmh 30.11 in1019.6 mb 0.00 in0.0 mm 0.00 in0.0 mm 0.00 in0.0 mm
12:52 AM 63.4°F17.4°C 63.1°F17.3°C 99% Calm Calm 2.0 mph3.2 kmh 30.11 in1019.6 mb 0.00 in0.0 mm 0.00 in0.0 mm 0.00 in0.0 mm
12:57 AM 63.2°F17.3°C 62.9°F17.2°C 99% 1.0 mph ESE1.6 kmh ESE 2.0 mph3.2 kmh 30.11 in1019.6 mb 0.00 in0.0 mm 0.00 in0.0 mm 0.00 in0.0 mm
01:02 AM 63.0°F17.2°C 62.7°F17.1°C 99% 1.0 mph ESE1.6 kmh ESE 2.0 mph3.2 kmh 30.10 in1019.3 mb 0.00 in0.0 mm 0.00 in0.0 mm 0.00 in0.0 mm
01:07 AM 62.7°F17.1°C 62.4°F16.9°C 99% 1.0 mph ESE1.6 kmh ESE 1.0 mph1.6 kmh 30.10 in1019.3 mb 0.00 in0.0 mm 0.00 in0.0 mm 0.00 in0.0 mm
01:12 AM 62.6°F17.0°C 62.3°F16.8°C 99% 1.0 mph ESE1.6 kmh ESE 1.0 mph1.6 kmh 30.10 in1019.3 mb 0.00 in0.0 mm 0.00 in0.0 mm 0.00 in0.0 mm
01:17 AM 62.8°F17.1°C 62.5°F16.9°C 99% 1.3 mph SE2.1 kmh SE 2.0 mph3.2 kmh 30.10 in1019.3 mb 0.00 in0.0 mm 0.00 in0.0 mm 0.00 in0.0 mm
01:22 AM 63.0°F17.2°C 62.7°F17.1°C 99% 1.1 mph SE1.8 kmh SE 2.0 mph3.2 kmh 30.10 in1019.3 mb 0.00 in0.0 mm 0.00 in0.0 mm 0.00 in0.0 mm
01:27 AM 63.2°F17.3°C 62.9°F17.2°C 99% 1.0 mph SE1.6 kmh SE 2.0 mph3.2 kmh 30.09 in1019.0 mb 0.00 in0.0 mm 0.00 in0.0 mm 0.00 in0.0 mm
01:32 AM 63.5°F17.5°C 63.2°F17.3°C 99% 1.0 mph SE1.6 kmh SE 2.0 mph3.2 kmh 30.09 in1019.0 mb 0.00 in0.0 mm 0.00 in0.0 mm 0.00 in0.0 mm
01:37 AM 63.7°F17.6°C 63.4°F17.4°C 99% 1.2 mph SSE1.9 kmh SSE 2.0 mph3.2 kmh 30.09 in1019.0 mb 0.00 in0.0 mm 0.00 in0.0 mm 0.00 in0.0 mm
01:42 AM 63.7°F17.6°C 63.4°F17.4°C 99% 1.5 mph SSE2.4 kmh SSE 2.0 mph3.2 kmh 30.09 in1019.0 mb 0.00 in0.0 mm 0.00 in0.0 mm 0.00 in0.0 mm
01:47 AM 63.9°F17.7°C 63.6°F17.6°C 99% 1.0 mph SSE1.6 kmh SSE 2.0 mph3.2 kmh 30.09 in1019.0 mb 0.00 in0.0 mm 0.00 in0.0 mm 0.00 in0.0 mm
01:52 AM 64.0°F17.8°C 63.7°F17.6°C 99% 1.0 mph SE1.6 kmh SE 3.0 mph4.8 kmh 30.09 in1019.0 mb 0.00 in0.0 mm 0.00 in0.0 mm 0.00 in0.0 mm
01:57 AM 64.1°F17.8°C 63.8°F17.7°C 99% 1.8 mph S2.9 kmh S 3.0 mph4.8 kmh 30.09 in1019.0 mb 0.01 in0.3 mm 0.12 in3.0 mm 0.01 in0.3 mm
02:02 AM 64.2°F17.9°C 63.9°F17.7°C 99% 1.0 mph SSE1.6 kmh SSE 3.0 mph4.8 kmh 30.09 in1019.0 mb 0.01 in0.3 mm 0.00 in0.0 mm 0.01 in0.3 mm
02:07 AM 64.2°F17.9°C 63.9°F17.7°C 99% 1.1 mph SW1.8 kmh SW 3.0 mph4.8 kmh 30.09 in1019.0 mb 0.01 in0.3 mm 0.00 in0.0 mm 0.01 in0.3 mm
02:11 AM 64.1°F17.8°C 63.8°F17.7°C 99% 1.8 mph SW2.9 kmh SW 3.0 mph4.8 kmh 30.09 in1019.0 mb 0.01 in0.3 mm 0.00 in0.0 mm 0.01 in0.3 mm
02:16 AM 64.0°F17.8°C 63.7°F17.6°C 99% 1.4 mph SW2.3 kmh SW 6.0 mph9.7 kmh 30.09 in1019.0 mb 0.01 in0.3 mm 0.00 in0.0 mm 0.01 in0.3 mm
02:21 AM 63.9°F17.7°C 63.6°F17.6°C 99% 1.0 mph SSW1.6 kmh SSW 6.0 mph9.7 kmh 30.09 in1019.0 mb 0.01 in0.3 mm 0.00 in0.0 mm 0.01 in0.3 mm
02:26 AM 63.7°F17.6°C 63.4°F17.4°C 99% 1.0 mph SW1.6 kmh SW 6.0 mph9.7 kmh 30.09 in1019.0 mb 0.01 in0.3 mm 0.00 in0.0 mm 0.01 in0.3 mm
02:31 AM 63.7°F17.6°C 63.4°F17.4°C 99% 1.2 mph SW1.9 kmh SW 6.0 mph9.7 kmh 30.09 in1019.0 mb 0.01 in0.3 mm 0.00 in0.0 mm 0.01 in0.3 mm
02:36 AM 63.5°F17.5°C 63.2°F17.3°C 99% 1.0 mph SSW1.6 kmh SSW 2.0 mph3.2 kmh 30.09 in1019.0 mb 0.01 in0.3 mm 0.00 in0.0 mm 0.01 in0.3 mm
02:41 AM 63.3°F17.4°C 63.0°F17.2°C 99% 1.0 mph SW1.6 kmh SW 2.0 mph3.2 kmh 30.09 in1019.0 mb 0.01 in0.3 mm 0.00 in0.0 mm 0.01 in0.3 mm
02:46 AM 63.3°F17.4°C 63.0°F17.2°C 99% Calm Calm 2.0 mph3.2 kmh 30.09 in1019.0 mb 0.01 in0.3 mm 0.00 in0.0 mm 0.01 in0.3 mm
02:51 AM 63.1°F17.3°C 62.8°F17.1°C 99% Calm Calm 2.0 mph3.2 kmh 30.09 in1019.0 mb 0.01 in0.3 mm 0.00 in0.0 mm 0.01 in0.3 mm
02:56 AM 63.0°F17.2°C 62.7°F17.1°C 99% 1.0 mph SW1.6 kmh SW 1.0 mph1.6 kmh 30.08 in1018.6 mb 0.00 in0.0 mm 0.00 in0.0 mm 0.01 in0.3 mm
03:01 AM 62.9°F17.2°C 62.6°F17.0°C 99% 1.0 mph SSW1.6 kmh SSW 1.0 mph1.6 kmh 30.08 in1018.6 mb 0.00 in0.0 mm 0.00 in0.0 mm 0.01 in0.3 mm
03:06 AM 63.0°F17.2°C 62.7°F17.1°C 99% 1.0 mph SW1.6 kmh SW 1.0 mph1.6 kmh 30.09 in1019.0 mb 0.00 in0.0 mm 0.00 in0.0 mm 0.01 in0.3 mm
03:11 AM 62.7°F17.1°C 62.4°F16.9°C 99% Calm Calm 1.0 mph1.6 kmh 30.09 in1019.0 mb 0.00 in0.0 mm 0.00 in0.0 mm 0.01 in0.3 mm
03:16 AM 62.6°F17.0°C 62.3°F16.8°C 99% 1.9 mph SW3.1 kmh SW 3.0 mph4.8 kmh 30.09 in1019.0 mb 0.00 in0.0 mm 0.00 in0.0 mm 0.01 in0.3 mm
03:21 AM 62.6°F17.0°C 62.3°F16.8°C 99% 1.0 mph SW1.6 kmh SW 3.0 mph4.8 kmh 30.09 in1019.0 mb 0.00 in0.0 mm 0.00 in0.0 mm 0.01 in0.3 mm
03:26 AM 62.4°F16.9°C 62.1°F16.7°C 99% 1.0 mph SW1.6 kmh SW 3.0 mph4.8 kmh 30.09 in1019.0 mb 0.00 in0.0 mm 0.00 in0.0 mm 0.01 in0.3 mm
03:31 AM 62.2°F16.8°C 61.9°F16.6°C 99% Calm Calm 3.0 mph4.8 kmh 30.09 in1019.0 mb 0.00 in0.0 mm 0.00 in0.0 mm 0.01 in0.3 mm
03:36 AM 62.1°F16.7°C 61.8°F16.6°C 99% 1.0 mph SW1.6 kmh SW 1.0 mph1.6 kmh 30.09 in1019.0 mb 0.00 in0.0 mm 0.00 in0.0 mm 0.01 in0.3 mm
03:41 AM 61.9°F16.6°C 61.6°F16.4°C 99% Calm Calm 1.0 mph1.6 kmh 30.09 in1019.0 mb 0.00 in0.0 mm 0.00 in0.0 mm 0.01 in0.3 mm
03:46 AM 61.6°F16.4°C 61.3°F16.3°C 99% Calm Calm 1.0 mph1.6 kmh 30.09 in1019.0 mb 0.00 in0.0 mm 0.00 in0.0 mm 0.01 in0.3 mm
03:51 AM 61.5°F16.4°C 61.2°F16.2°C 99% 1.0 mph SW1.6 kmh SW 1.0 mph1.6 kmh 30.09 in1019.0 mb 0.00 in0.0 mm 0.00 in0.0 mm 0.01 in0.3 mm
03:56 AM 61.5°F16.4°C 61.2°F16.2°C 99% 1.2 mph SW1.9 kmh SW 2.0 mph3.2 kmh 30.09 in1019.0 mb 0.00 in0.0 mm 0.00 in0.0 mm 0.01 in0.3 mm
04:01 AM 61.3°F16.3°C 61.0°F16.1°C 99% 1.1 mph SSW1.8 kmh SSW 2.0 mph3.2 kmh 30.09 in1019.0 mb 0.00 in0.0 mm 0.00 in0.0 mm 0.01 in0.3 mm
04:06 AM 61.3°F16.3°C 61.0°F16.1°C 99% 1.4 mph SW2.3 kmh SW 2.0 mph3.2 kmh 30.09 in1019.0 mb 0.00 in0.0 mm 0.00 in0.0 mm 0.01 in0.3 mm
04:11 AM 61.3°F16.3°C 61.0°F16.1°C 99% 1.2 mph SSW1.9 kmh SSW 3.0 mph4.8 kmh 30.09 in1019.0 mb 0.00 in0.0 mm 0.00 in0.0 mm 0.01 in0.3 mm
04:16 AM 61.2°F16.2°C 60.9°F16.1°C 99% 1.1 mph SW1.8 kmh SW 3.0 mph4.8 kmh 30.09 in1019.0 mb 0.00 in0.0 mm 0.00 in0.0 mm 0.01 in0.3 mm
04:21 AM 61.1°F16.2°C 60.8°F16.0°C 99% 1.1 mph SW1.8 kmh SW 3.0 mph4.8 kmh 30.09 in1019.0 mb 0.00 in0.0 mm 0.00 in0.0 mm 0.01 in0.3 mm
04:26 AM 60.9°F16.1°C 60.6°F15.9°C 99% 1.0 mph SW1.6 kmh SW 3.0 mph4.8 kmh 30.10 in1019.3 mb 0.00 in0.0 mm 0.00 in0.0 mm 0.01 in0.3 mm
04:31 AM 61.0°F16.1°C 60.7°F15.9°C 99% 1.1 mph WSW1.8 kmh WSW 2.0 mph3.2 kmh 30.10 in1019.3 mb 0.00 in0.0 mm 0.00 in0.0 mm 0.01 in0.3 mm
04:36 AM 61.0°F16.1°C 60.7°F15.9°C 99% 1.0 mph SW1.6 kmh SW 2.0 mph3.2 kmh 30.10 in1019.3 mb 0.00 in0.0 mm 0.00 in0.0 mm 0.01 in0.3 mm
04:41 AM 60.9°F16.1°C 60.6°F15.9°C 99% 1.0 mph SW1.6 kmh SW 2.0 mph3.2 kmh 30.10 in1019.3 mb 0.00 in0.0 mm 0.00 in0.0 mm 0.01 in0.3 mm
04:46 AM 60.7°F15.9°C 60.4°F15.8°C 99% 1.0 mph SW1.6 kmh SW 2.0 mph3.2 kmh 30.11 in1019.6 mb 0.00 in0.0 mm 0.00 in0.0 mm 0.01 in0.3 mm
04:51 AM 60.7°F15.9°C 60.4°F15.8°C 99% Calm Calm 2.0 mph3.2 kmh 30.11 in1019.6 mb 0.00 in0.0 mm 0.00 in0.0 mm 0.01 in0.3 mm
04:56 AM 60.9°F16.1°C 60.6°F15.9°C 99% 1.0 mph WSW1.6 kmh WSW 2.0 mph3.2 kmh 30.11 in1019.6 mb 0.00 in0.0 mm 0.00 in0.0 mm 0.01 in0.3 mm
05:01 AM 60.8°F16.0°C 60.5°F15.8°C 99% Calm Calm 2.0 mph3.2 kmh 30.11 in1019.6 mb 0.00 in0.0 mm 0.00 in0.0 mm 0.01 in0.3 mm
05:06 AM 60.9°F16.1°C 60.6°F15.9°C 99% Calm Calm 2.0 mph3.2 kmh 30.11 in1019.6 mb 0.00 in0.0 mm 0.00 in0.0 mm 0.01 in0.3 mm
05:11 AM 61.2°F16.2°C 60.9°F16.1°C 99% 1.0 mph WSW1.6 kmh WSW 1.0 mph1.6 kmh 30.11 in1019.6 mb 0.00 in0.0 mm 0.00 in0.0 mm 0.01 in0.3 mm
05:16 AM 61.4°F16.3°C 61.1°F16.2°C 99% 1.0 mph WSW1.6 kmh WSW 2.0 mph3.2 kmh 30.11 in1019.6 mb 0.00 in0.0 mm 0.00 in0.0 mm 0.01 in0.3 mm
05:21 AM 61.5°F16.4°C 61.2°F16.2°C 99% 1.0 mph WSW1.6 kmh WSW 2.0 mph3.2 kmh 30.11 in1019.6 mb 0.00 in0.0 mm 0.00 in0.0 mm 0.01 in0.3 mm
05:26 AM 61.4°F16.3°C 61.1°F16.2°C 99% Calm Calm 2.0 mph3.2 kmh 30.12 in1020.0 mb 0.00 in0.0 mm 0.00 in0.0 mm 0.01 in0.3 mm
05:31 AM 61.2°F16.2°C 60.9°F16.1°C 99% Calm Calm 2.0 mph3.2 kmh 30.12 in1020.0 mb 0.00 in0.0 mm 0.00 in0.0 mm 0.01 in0.3 mm
05:36 AM 61.1°F16.2°C 60.8°F16.0°C 99% 1.1 mph SW1.8 kmh SW 2.0 mph3.2 kmh 30.12 in1020.0 mb 0.00 in0.0 mm 0.00 in0.0 mm 0.01 in0.3 mm
05:41 AM 61.0°F16.1°C 60.7°F15.9°C 99% 1.2 mph SW1.9 kmh SW 2.0 mph3.2 kmh 30.12 in1020.0 mb 0.00 in0.0 mm 0.00 in0.0 mm 0.01 in0.3 mm
05:46 AM 61.0°F16.1°C 60.7°F15.9°C 99% 1.0 mph SW1.6 kmh SW 2.0 mph3.2 kmh 30.12 in1020.0 mb 0.00 in0.0 mm 0.00 in0.0 mm 0.01 in0.3 mm
05:51 AM 60.8°F16.0°C 60.5°F15.8°C 99% 1.0 mph SW1.6 kmh SW 2.0 mph3.2 kmh 30.12 in1020.0 mb 0.00 in0.0 mm 0.00 in0.0 mm 0.01 in0.3 mm
05:56 AM 60.6°F15.9°C 60.3°F15.7°C 99% 1.0 mph SW1.6 kmh SW 2.0 mph3.2 kmh 30.12 in1020.0 mb 0.00 in0.0 mm 0.00 in0.0 mm 0.01 in0.3 mm
06:01 AM 61.0°F16.1°C 60.7°F15.9°C 99% 1.0 mph S1.6 kmh S 2.0 mph3.2 kmh 30.12 in1020.0 mb 0.00 in0.0 mm 0.00 in0.0 mm 0.01 in0.3 mm
06:06 AM 61.2°F16.2°C 60.9°F16.1°C 99% 1.2 mph SSW1.9 kmh SSW 3.0 mph4.8 kmh 30.12 in1020.0 mb 0.00 in0.0 mm 0.00 in0.0 mm 0.01 in0.3 mm
06:12 AM 61.4°F16.3°C 61.1°F16.2°C 99% 1.2 mph SSW1.9 kmh SSW 3.0 mph4.8 kmh 30.12 in1020.0 mb 0.00 in0.0 mm 0.00 in0.0 mm 0.01 in0.3 mm
06:17 AM 61.6°F16.4°C 61.3°F16.3°C 99% 2.0 mph SSW3.2 kmh SSW 3.0 mph4.8 kmh 30.12 in1020.0 mb 0.00 in0.0 mm 0.00 in0.0 mm 0.01 in0.3 mm
06:22 AM 62.0°F16.7°C 61.7°F16.5°C 99% 2.3 mph SW3.7 kmh SW 5.0 mph8.0 kmh 30.12 in1020.0 mb 0.00 in0.0 mm 0.00 in0.0 mm 0.01 in0.3 mm
06:26 AM 62.1°F16.7°C 61.8°F16.6°C 99% 2.4 mph SW3.9 kmh SW 6.0 mph9.7 kmh 30.12 in1020.0 mb 0.00 in0.0 mm 0.00 in0.0 mm 0.01 in0.3 mm
06:31 AM 61.9°F16.6°C 61.6°F16.4°C 99% 3.1 mph SW5.0 kmh SW 6.0 mph9.7 kmh 30.12 in1020.0 mb 0.00 in0.0 mm 0.00 in0.0 mm 0.01 in0.3 mm
06:37 AM 61.7°F16.5°C 61.4°F16.3°C 99% 3.1 mph SW5.0 kmh SW 6.0 mph9.7 kmh 30.13 in1020.3 mb 0.00 in0.0 mm 0.00 in0.0 mm 0.01 in0.3 mm
06:42 AM 61.5°F16.4°C 61.2°F16.2°C 99% 2.7 mph SW4.3 kmh SW 6.0 mph9.7 kmh 30.13 in1020.3 mb 0.00 in0.0 mm 0.00 in0.0 mm 0.01 in0.3 mm
06:47 AM 61.3°F16.3°C 61.0°F16.1°C 99% 2.7 mph SW4.3 kmh SW 6.0 mph9.7 kmh 30.13 in1020.3 mb 0.00 in0.0 mm 0.00 in0.0 mm 0.01 in0.3 mm
06:52 AM 61.1°F16.2°C 60.8°F16.0°C 99% 1.7 mph SW2.7 kmh SW 5.0 mph8.0 kmh 30.13 in1020.3 mb 0.00 in0.0 mm 0.00 in0.0 mm 0.01 in0.3 mm
06:57 AM 61.0°F16.1°C 60.7°F15.9°C 99% 1.9 mph SW3.1 kmh SW 5.0 mph8.0 kmh 30.14 in1020.7 mb 0.00 in0.0 mm 0.00 in0.0 mm 0.01 in0.3 mm
07:02 AM 60.8°F16.0°C 60.5°F15.8°C 99% 2.2 mph SW3.5 kmh SW 5.0 mph8.0 kmh 30.14 in1020.7 mb 0.00 in0.0 mm 0.00 in0.0 mm 0.01 in0.3 mm
07:06 AM 60.7°F15.9°C 60.4°F15.8°C 99% 2.0 mph SW3.2 kmh SW 5.0 mph8.0 kmh 30.14 in1020.7 mb 0.00 in0.0 mm 0.00 in0.0 mm 0.01 in0.3 mm
07:11 AM 60.8°F16.0°C 60.5°F15.8°C 99% 1.4 mph SW2.3 kmh SW 5.0 mph8.0 kmh 30.14 in1020.7 mb 0.00 in0.0 mm 0.00 in0.0 mm 0.01 in0.3 mm
07:16 AM 60.6°F15.9°C 60.3°F15.7°C 99% 1.4 mph SW2.3 kmh SW 5.0 mph8.0 kmh 30.14 in1020.7 mb 0.00 in0.0 mm 0.00 in0.0 mm 0.01 in0.3 mm
07:21 AM 60.9°F16.1°C 60.6°F15.9°C 99% 1.9 mph WSW3.1 kmh WSW 5.0 mph8.0 kmh 30.14 in1020.7 mb 0.00 in0.0 mm 0.00 in0.0 mm 0.01 in0.3 mm
07:26 AM 61.3°F16.3°C 61.0°F16.1°C 99% 2.3 mph WSW3.7 kmh WSW 5.0 mph8.0 kmh 30.15 in1021.0 mb 0.00 in0.0 mm 0.00 in0.0 mm 0.01 in0.3 mm
07:31 AM 61.5°F16.4°C 61.2°F16.2°C 99% 1.6 mph SW2.6 kmh SW 5.0 mph8.0 kmh 30.14 in1020.7 mb 0.00 in0.0 mm 0.00 in0.0 mm 0.01 in0.3 mm
07:36 AM 61.5°F16.4°C 61.2°F16.2°C 99% 2.9 mph SW4.7 kmh SW 6.0 mph9.7 kmh 30.14 in1020.7 mb 0.00 in0.0 mm 0.00 in0.0 mm 0.01 in0.3 mm
07:41 AM 61.4°F16.3°C 61.1°F16.2°C 99% 1.6 mph SW2.6 kmh SW 6.0 mph9.7 kmh 30.15 in1021.0 mb 0.00 in0.0 mm 0.00 in0.0 mm 0.01 in0.3 mm
07:46 AM 61.4°F16.3°C 61.1°F16.2°C 99% 3.1 mph SW5.0 kmh SW 6.0 mph9.7 kmh 30.15 in1021.0 mb 0.00 in0.0 mm 0.00 in0.0 mm 0.01 in0.3 mm
07:51 AM 61.4°F16.3°C 61.1°F16.2°C 99% 1.9 mph SW3.1 kmh SW 6.0 mph9.7 kmh 30.15 in1021.0 mb 0.00 in0.0 mm 0.00 in0.0 mm 0.01 in0.3 mm
07:56 AM 61.4°F16.3°C 61.1°F16.2°C 99% 1.6 mph WSW2.6 kmh WSW 6.0 mph9.7 kmh 30.15 in1021.0 mb 0.00 in0.0 mm 0.00 in0.0 mm 0.01 in0.3 mm
08:01 AM 61.5°F16.4°C 61.2°F16.2°C 99% 1.8 mph WSW2.9 kmh WSW 6.0 mph9.7 kmh 30.15 in1021.0 mb 0.00 in0.0 mm 0.00 in0.0 mm 0.01 in0.3 mm
08:06 AM 61.6°F16.4°C 61.3°F16.3°C 99% 1.3 mph WSW2.1 kmh WSW 4.0 mph6.4 kmh 30.16 in1021.3 mb 0.00 in0.0 mm 0.00 in0.0 mm 0.01 in0.3 mm
08:11 AM 61.6°F16.4°C 61.3°F16.3°C 99% 1.6 mph SW2.6 kmh SW 4.0 mph6.4 kmh 30.15 in1021.0 mb 0.00 in0.0 mm 0.00 in0.0 mm 0.01 in0.3 mm
08:16 AM 61.6°F16.4°C 61.3°F16.3°C 99% 1.0 mph WSW1.6 kmh WSW 4.0 mph6.4 kmh 30.16 in1021.3 mb 0.00 in0.0 mm 0.00 in0.0 mm 0.01 in0.3 mm
08:21 AM 61.7°F16.5°C 61.4°F16.3°C 99% 1.4 mph W2.3 kmh W 4.0 mph6.4 kmh 30.16 in1021.3 mb 0.00 in0.0 mm 0.00 in0.0 mm 0.01 in0.3 mm
08:26 AM 61.8°F16.6°C 61.5°F16.4°C 99% 1.0 mph WSW1.6 kmh WSW 4.0 mph6.4 kmh 30.16 in1021.3 mb 0.00 in0.0 mm 0.00 in0.0 mm 0.01 in0.3 mm
08:31 AM 62.0°F16.7°C 61.7°F16.5°C 99% Calm Calm 2.0 mph3.2 kmh 30.16 in1021.3 mb 0.00 in0.0 mm 0.00 in0.0 mm 0.01 in0.3 mm
08:36 AM 62.2°F16.8°C 61.9°F16.6°C 99% 1.4 mph WSW2.3 kmh WSW 2.0 mph3.2 kmh 30.16 in1021.3 mb 0.00 in0.0 mm 0.00 in0.0 mm 0.01 in0.3 mm
08:41 AM 62.3°F16.8°C 62.0°F16.7°C 99% 1.0 mph WNW1.6 kmh WNW 2.0 mph3.2 kmh 30.17 in1021.7 mb 0.00 in0.0 mm 0.00 in0.0 mm 0.01 in0.3 mm
08:46 AM 62.5°F16.9°C 62.2°F16.8°C 99% 1.0 mph SW1.6 kmh SW 2.0 mph3.2 kmh 30.17 in1021.7 mb 0.00 in0.0 mm 0.00 in0.0 mm 0.01 in0.3 mm
08:51 AM 62.7°F17.1°C 62.4°F16.9°C 99% 1.6 mph SW2.6 kmh SW 2.0 mph3.2 kmh 30.17 in1021.7 mb 0.00 in0.0 mm 0.00 in0.0 mm 0.01 in0.3 mm
08:56 AM 62.9°F17.2°C 62.6°F17.0°C 99% 1.3 mph SW2.1 kmh SW 2.0 mph3.2 kmh 30.17 in1021.7 mb 0.00 in0.0 mm 0.00 in0.0 mm 0.01 in0.3 mm
09:01 AM 63.2°F17.3°C 62.9°F17.2°C 99% 1.0 mph WSW1.6 kmh WSW 2.0 mph3.2 kmh 30.17 in1021.7 mb 0.00 in0.0 mm 0.00 in0.0 mm 0.01 in0.3 mm
09:06 AM 63.3°F17.4°C 63.0°F17.2°C 99% 1.6 mph SSW2.6 kmh SSW 3.0 mph4.8 kmh 30.17 in1021.7 mb 0.00 in0.0 mm 0.00 in0.0 mm 0.01 in0.3 mm
09:11 AM 63.3°F17.4°C 63.0°F17.2°C 99% 1.0 mph SW1.6 kmh SW 3.0 mph4.8 kmh 30.17 in1021.7 mb 0.00 in0.0 mm 0.00 in0.0 mm 0.01 in0.3 mm
09:16 AM 63.3°F17.4°C 63.0°F17.2°C 99% 1.0 mph SSW1.6 kmh SSW 3.0 mph4.8 kmh 30.17 in1021.7 mb 0.00 in0.0 mm 0.00 in0.0 mm 0.01 in0.3 mm
09:21 AM 63.5°F17.5°C 63.2°F17.3°C 99% 1.3 mph SE2.1 kmh SE 3.0 mph4.8 kmh 30.17 in1021.7 mb 0.00 in0.0 mm 0.00 in0.0 mm 0.01 in0.3 mm
09:26 AM 63.8°F17.7°C 63.5°F17.5°C 99% 1.0 mph SW1.6 kmh SW 2.0 mph3.2 kmh 30.17 in1021.7 mb 0.00 in0.0 mm 0.00 in0.0 mm 0.01 in0.3 mm
09:31 AM 63.9°F17.7°C 63.6°F17.6°C 99% 1.0 mph SW1.6 kmh SW 2.0 mph3.2 kmh 30.18 in1022.0 mb 0.00 in0.0 mm 0.00 in0.0 mm 0.01 in0.3 mm
09:36 AM 64.5°F18.1°C 64.2°F17.9°C 99% Calm Calm 2.0 mph3.2 kmh 30.18 in1022.0 mb 0.00 in0.0 mm 0.00 in0.0 mm 0.01 in0.3 mm
09:41 AM 64.8°F18.2°C 64.5°F18.1°C 99% Calm Calm 2.0 mph3.2 kmh 30.17 in1021.7 mb 0.00 in0.0 mm 0.00 in0.0 mm 0.01 in0.3 mm
09:46 AM 65.2°F18.4°C 64.9°F18.3°C 99% 1.2 mph SW1.9 kmh SW 2.0 mph3.2 kmh 30.18 in1022.0 mb 0.00 in0.0 mm 0.00 in0.0 mm 0.01 in0.3 mm
09:51 AM 65.3°F18.5°C 65.0°F18.3°C 99% Calm Calm 2.0 mph3.2 kmh 30.18 in1022.0 mb 0.00 in0.0 mm 0.00 in0.0 mm 0.01 in0.3 mm
09:56 AM 65.8°F18.8°C 65.5°F18.6°C 99% 1.3 mph SW2.1 kmh SW 2.0 mph3.2 kmh 30.18 in1022.0 mb 0.00 in0.0 mm 0.00 in0.0 mm 0.01 in0.3 mm
10:01 AM 66.1°F18.9°C 65.8°F18.8°C 99% 2.3 mph SW3.7 kmh SW 4.0 mph6.4 kmh 30.18 in1022.0 mb 0.00 in0.0 mm 0.00 in0.0 mm 0.01 in0.3 mm
10:06 AM 66.0°F18.9°C 65.7°F18.7°C 99% 1.6 mph SW2.6 kmh SW 5.0 mph8.0 kmh 30.18 in1022.0 mb 0.00 in0.0 mm 0.00 in0.0 mm 0.01 in0.3 mm
10:11 AM 66.1°F18.9°C 65.8°F18.8°C 99% 2.3 mph SSW3.7 kmh SSW 6.0 mph9.7 kmh 30.18 in1022.0 mb 0.00 in0.0 mm 0.00 in0.0 mm 0.01 in0.3 mm
10:16 AM 66.2°F19.0°C 65.9°F18.8°C 99% 3.2 mph SSW5.1 kmh SSW 6.0 mph9.7 kmh 30.17 in1021.7 mb 0.00 in0.0 mm 0.00 in0.0 mm 0.01 in0.3 mm
10:21 AM 66.6°F19.2°C 66.3°F19.1°C 99% 2.6 mph S4.2 kmh S 7.0 mph11.3 kmh 30.17 in1021.7 mb 0.00 in0.0 mm 0.00 in0.0 mm 0.01 in0.3 mm
10:26 AM 66.9°F19.4°C 66.6°F19.2°C 99% 2.7 mph SSW4.3 kmh SSW 7.0 mph11.3 kmh 30.18 in1022.0 mb 0.00 in0.0 mm 0.00 in0.0 mm 0.01 in0.3 mm
10:31 AM 67.0°F19.4°C 66.7°F19.3°C 99% 2.1 mph SSW3.4 kmh SSW 9.0 mph14.5 kmh 30.17 in1021.7 mb 0.00 in0.0 mm 0.00 in0.0 mm 0.01 in0.3 mm
10:36 AM 67.2°F19.6°C 66.9°F19.4°C 99% 3.4 mph SW5.5 kmh SW 9.0 mph14.5 kmh 30.17 in1021.7 mb 0.00 in0.0 mm 0.00 in0.0 mm 0.01 in0.3 mm
10:41 AM 67.6°F19.8°C 67.3°F19.6°C 99% 3.5 mph SSW5.6 kmh SSW 10.0 mph16.1 kmh 30.17 in1021.7 mb 0.00 in0.0 mm 0.00 in0.0 mm 0.01 in0.3 mm
10:46 AM 67.6°F19.8°C 67.3°F19.6°C 99% 4.3 mph SW6.9 kmh SW 10.0 mph16.1 kmh 30.17 in1021.7 mb 0.00 in0.0 mm 0.00 in0.0 mm 0.01 in0.3 mm
10:51 AM 68.0°F20.0°C 67.7°F19.8°C 99% 4.5 mph SW7.2 kmh SW 10.0 mph16.1 kmh 30.17 in1021.7 mb 0.00 in0.0 mm 0.00 in0.0 mm 0.01 in0.3 mm
10:56 AM 68.1°F20.1°C 67.8°F19.9°C 99% 4.6 mph SW7.4 kmh SW 11.0 mph17.7 kmh 30.17 in1021.7 mb 0.00 in0.0 mm 0.00 in0.0 mm 0.01 in0.3 mm
11:01 AM 68.4°F20.2°C 68.1°F20.1°C 99% 5.4 mph SSW8.7 kmh SSW 11.0 mph17.7 kmh 30.17 in1021.7 mb 0.00 in0.0 mm 0.00 in0.0 mm 0.01 in0.3 mm
11:06 AM 68.8°F20.4°C 68.5°F20.3°C 99% 3.9 mph S6.3 kmh S 11.0 mph17.7 kmh 30.17 in1021.7 mb 0.00 in0.0 mm 0.00 in0.0 mm 0.01 in0.3 mm
11:11 AM 69.1°F20.6°C 68.5°F20.3°C 98% 2.9 mph SW4.7 kmh SW 11.0 mph17.7 kmh 30.17 in1021.7 mb 0.00 in0.0 mm 0.00 in0.0 mm 0.01 in0.3 mm
11:16 AM 69.6°F20.9°C 69.0°F20.6°C 98% 5.3 mph SSW8.5 kmh SSW 10.0 mph16.1 kmh 30.17 in1021.7 mb 0.00 in0.0 mm 0.00 in0.0 mm 0.01 in0.3 mm
11:21 AM 70.0°F21.1°C 69.4°F20.8°C 98% 3.9 mph SSW6.3 kmh SSW 10.0 mph16.1 kmh 30.17 in1021.7 mb 0.00 in0.0 mm 0.00 in0.0 mm 0.01 in0.3 mm
11:26 AM 70.5°F21.4°C 69.3°F20.7°C 96% 5.3 mph SW8.5 kmh SW 11.0 mph17.7 kmh 30.17 in1021.7 mb 0.00 in0.0 mm 0.00 in0.0 mm 0.01 in0.3 mm
11:31 AM 71.3°F21.8°C 69.2°F20.7°C 93% 2.7 mph SW4.3 kmh SW 11.0 mph17.7 kmh 30.17 in1021.7 mb 0.00 in0.0 mm 0.00 in0.0 mm 0.01 in0.3 mm
11:36 AM 71.8°F22.1°C 68.4°F20.2°C 89% 5.7 mph WSW9.2 kmh WSW 11.0 mph17.7 kmh 30.17 in1021.7 mb 0.00 in0.0 mm 0.00 in0.0 mm 0.01 in0.3 mm
11:41 AM 72.3°F22.4°C 68.2°F20.1°C 87% 5.5 mph WSW8.9 kmh WSW 11.0 mph17.7 kmh 30.17 in1021.7 mb 0.00 in0.0 mm 0.00 in0.0 mm 0.01 in0.3 mm
11:46 AM 72.7°F22.6°C 67.9°F19.9°C 85% 5.0 mph WSW8.0 kmh WSW 11.0 mph17.7 kmh 30.17 in1021.7 mb 0.00 in0.0 mm 0.00 in0.0 mm 0.01 in0.3 mm
11:51 AM 72.9°F22.7°C 68.2°F20.1°C 85% 4.0 mph SW6.4 kmh SW 11.0 mph17.7 kmh 30.17 in1021.7 mb 0.00 in0.0 mm 0.00 in0.0 mm 0.01 in0.3 mm
11:56 AM 73.2°F22.9°C 68.1°F20.1°C 84% 1.6 mph SW2.6 kmh SW 11.0 mph17.7 kmh 30.17 in1021.7 mb 0.00 in0.0 mm 0.00 in0.0 mm 0.01 in0.3 mm
12:01 PM 73.3°F22.9°C 66.8°F19.3°C 80% 6.3 mph WSW10.1 kmh WSW 12.0 mph19.3 kmh 30.17 in1021.7 mb 0.00 in0.0 mm 0.00 in0.0 mm 0.01 in0.3 mm
12:05 PM 73.2°F22.9°C 67.1°F19.5°C 81% 4.2 mph WSW6.8 kmh WSW 12.0 mph19.3 kmh 30.17 in1021.7 mb 0.00 in0.0 mm 0.00 in0.0 mm 0.01 in0.3 mm
12:10 PM 73.6°F23.1°C 67.5°F19.7°C 81% 4.1 mph SW6.6 kmh SW 12.0 mph19.3 kmh 30.17 in1021.7 mb 0.00 in0.0 mm 0.00 in0.0 mm 0.01 in0.3 mm
12:15 PM 73.9°F23.3°C 68.5°F20.3°C 83% 1.0 mph W1.6 kmh W 12.0 mph19.3 kmh 30.17 in1021.7 mb 0.00 in0.0 mm 0.00 in0.0 mm 0.01 in0.3 mm
12:20 PM 74.4°F23.6°C 67.6°F19.8°C 79% 3.8 mph WSW6.1 kmh WSW 10.0 mph16.1 kmh 30.16 in1021.3 mb 0.00 in0.0 mm 0.00 in0.0 mm 0.01 in0.3 mm
12:25 PM 74.3°F23.5°C 67.5°F19.7°C 79% 3.5 mph SW5.6 kmh SW 10.0 mph16.1 kmh 30.16 in1021.3 mb 0.00 in0.0 mm 0.00 in0.0 mm 0.01 in0.3 mm
12:30 PM 74.6°F23.7°C 67.8°F19.9°C 79% 2.4 mph WSW3.9 kmh WSW 9.0 mph14.5 kmh 30.16 in1021.3 mb 0.00 in0.0 mm 0.00 in0.0 mm 0.01 in0.3 mm
12:35 PM 75.2°F24.0°C 67.5°F19.7°C 77% 2.9 mph WSW4.7 kmh WSW 9.0 mph14.5 kmh 30.16 in1021.3 mb 0.00 in0.0 mm 0.00 in0.0 mm 0.01 in0.3 mm
12:40 PM 74.6°F23.7°C 66.7°F19.3°C 76% 4.1 mph WSW6.6 kmh WSW 10.0 mph16.1 kmh 30.16 in1021.3 mb 0.00 in0.0 mm 0.00 in0.0 mm 0.01 in0.3 mm
12:45 PM 74.2°F23.4°C 66.7°F19.3°C 77% 3.8 mph WSW6.1 kmh WSW 10.0 mph16.1 kmh 30.16 in1021.3 mb 0.00 in0.0 mm 0.00 in0.0 mm 0.01 in0.3 mm
12:50 PM 74.1°F23.4°C 66.6°F19.2°C 77% 4.4 mph WSW7.1 kmh WSW 10.0 mph16.1 kmh 30.15 in1021.0 mb 0.00 in0.0 mm 0.00 in0.0 mm 0.01 in0.3 mm
12:55 PM 74.0°F23.3°C 66.8°F19.3°C 78% 2.7 mph WSW4.3 kmh WSW 10.0 mph16.1 kmh 30.15 in1021.0 mb 0.00 in0.0 mm 0.00 in0.0 mm 0.01 in0.3 mm
01:00 PM 74.2°F23.4°C 65.9°F18.8°C 75% 3.5 mph WSW5.6 kmh WSW 9.0 mph14.5 kmh 30.15 in1021.0 mb 0.00 in0.0 mm 0.00 in0.0 mm 0.01 in0.3 mm
01:05 PM 74.5°F23.6°C 65.8°F18.8°C 74% 5.3 mph SW8.5 kmh SW 9.0 mph14.5 kmh 30.15 in1021.0 mb 0.00 in0.0 mm 0.00 in0.0 mm 0.01 in0.3 mm
01:10 PM 75.0°F23.9°C 67.1°F19.5°C 76% 3.3 mph WSW5.3 kmh WSW 9.0 mph14.5 kmh 30.14 in1020.7 mb 0.00 in0.0 mm 0.00 in0.0 mm 0.01 in0.3 mm
01:15 PM 75.4°F24.1°C 66.7°F19.3°C 74% 2.5 mph SW4.0 kmh SW 8.0 mph12.9 kmh 30.14 in1020.7 mb 0.00 in0.0 mm 0.00 in0.0 mm 0.01 in0.3 mm
01:20 PM 75.9°F24.4°C 67.0°F19.4°C 74% 2.3 mph NW3.7 kmh NW 8.0 mph12.9 kmh 30.14 in1020.7 mb 0.00 in0.0 mm 0.00 in0.0 mm 0.01 in0.3 mm
01:25 PM 75.6°F24.2°C 65.9°F18.8°C 72% 3.2 mph W5.1 kmh W 7.0 mph11.3 kmh 30.14 in1020.7 mb 0.00 in0.0 mm 0.00 in0.0 mm 0.01 in0.3 mm
01:30 PM 75.6°F24.2°C 65.7°F18.7°C 71% 3.4 mph WSW5.5 kmh WSW 7.0 mph11.3 kmh 30.14 in1020.7 mb 0.00 in0.0 mm 0.00 in0.0 mm 0.01 in0.3 mm
01:35 PM 76.2°F24.6°C 65.9°F18.8°C 70% 2.2 mph W3.5 kmh W 8.0 mph12.9 kmh 30.13 in1020.3 mb 0.00 in0.0 mm 0.00 in0.0 mm 0.01 in0.3 mm
01:40 PM 76.7°F24.8°C 66.4°F19.1°C 70% 1.8 mph SSW2.9 kmh SSW 8.0 mph12.9 kmh 30.13 in1020.3 mb 0.00 in0.0 mm 0.00 in0.0 mm 0.01 in0.3 mm
01:45 PM 76.9°F24.9°C 65.8°F18.8°C 68% 5.5 mph WSW8.9 kmh WSW 12.0 mph19.3 kmh 30.13 in1020.3 mb 0.00 in0.0 mm 0.00 in0.0 mm 0.01 in0.3 mm
01:50 PM 76.8°F24.9°C 65.7°F18.7°C 68% 5.7 mph WSW9.2 kmh WSW 12.0 mph19.3 kmh 30.12 in1020.0 mb 0.00 in0.0 mm 0.00 in0.0 mm 0.01 in0.3 mm
01:55 PM 77.1°F25.1°C 65.3°F18.5°C 67% 5.3 mph SW8.5 kmh SW 12.0 mph19.3 kmh 30.12 in1020.0 mb 0.00 in0.0 mm 0.00 in0.0 mm 0.01 in0.3 mm
02:00 PM 77.4°F25.2°C 66.2°F19.0°C 68% 3.4 mph WNW5.5 kmh WNW 12.0 mph19.3 kmh 30.12 in1020.0 mb 0.00 in0.0 mm 0.00 in0.0 mm 0.01 in0.3 mm
02:05 PM 77.0°F25.0°C 66.7°F19.3°C 70% 1.6 mph W2.6 kmh W 9.0 mph14.5 kmh 30.12 in1020.0 mb 0.00 in0.0 mm 0.00 in0.0 mm 0.01 in0.3 mm
02:10 PM 76.3°F24.6°C 65.8°F18.8°C 70% 2.1 mph NW3.4 kmh NW 9.0 mph14.5 kmh 30.12 in1020.0 mb 0.00 in0.0 mm 0.00 in0.0 mm 0.01 in0.3 mm
02:15 PM 76.1°F24.5°C 66.0°F18.9°C 71% 2.5 mph WNW4.0 kmh WNW 8.0 mph12.9 kmh 30.12 in1020.0 mb 0.00 in0.0 mm 0.00 in0.0 mm 0.01 in0.3 mm
02:20 PM 76.1°F24.5°C 66.4°F19.1°C 72% 3.9 mph WNW6.3 kmh WNW 10.0 mph16.1 kmh 30.12 in1020.0 mb 0.00 in0.0 mm 0.00 in0.0 mm 0.01 in0.3 mm
02:25 PM 76.3°F24.6°C 66.2°F19.0°C 71% 1.2 mph WNW1.9 kmh WNW 10.0 mph16.1 kmh 30.12 in1020.0 mb 0.00 in0.0 mm 0.00 in0.0 mm 0.01 in0.3 mm
02:30 PM 76.7°F24.8°C 66.2°F19.0°C 70% 1.6 mph SW2.6 kmh SW 10.0 mph16.1 kmh 30.12 in1020.0 mb 0.00 in0.0 mm 0.00 in0.0 mm 0.01 in0.3 mm
02:35 PM 76.6°F24.8°C 66.3°F19.1°C 70% 2.6 mph SW4.2 kmh SW 10.0 mph16.1 kmh 30.12 in1020.0 mb 0.00 in0.0 mm 0.00 in0.0 mm 0.01 in0.3 mm
02:40 PM 76.9°F24.9°C 66.2°F19.0°C 69% 3.4 mph S5.5 kmh S 5.0 mph8.0 kmh 30.11 in1019.6 mb 0.00 in0.0 mm 0.00 in0.0 mm 0.01 in0.3 mm
02:45 PM 77.2°F25.1°C 66.0°F18.9°C 68% 1.0 mph WSW1.6 kmh WSW 6.0 mph9.7 kmh 30.11 in1019.6 mb 0.00 in0.0 mm 0.00 in0.0 mm 0.01 in0.3 mm
02:50 PM 77.5°F25.3°C 66.7°F19.3°C 69% 2.4 mph WNW3.9 kmh WNW 6.0 mph9.7 kmh 30.11 in1019.6 mb 0.00 in0.0 mm 0.00 in0.0 mm 0.01 in0.3 mm
02:55 PM 77.2°F25.1°C 65.8°F18.8°C 68% 1.9 mph W3.1 kmh W 6.0 mph9.7 kmh 30.11 in1019.6 mb 0.00 in0.0 mm 0.00 in0.0 mm 0.01 in0.3 mm
03:00 PM 77.4°F25.2°C 66.2°F19.0°C 68% Calm Calm 6.0 mph9.7 kmh 30.11 in1019.6 mb 0.00 in0.0 mm 0.00 in0.0 mm 0.01 in0.3 mm
03:05 PM 77.4°F25.2°C 65.8°F18.8°C 67% 1.8 mph WSW2.9 kmh WSW 6.0 mph9.7 kmh 30.11 in1019.6 mb 0.00 in0.0 mm 0.00 in0.0 mm 0.01 in0.3 mm
03:10 PM 77.2°F25.1°C 65.6°F18.7°C 67% 1.7 mph SW2.7 kmh SW 4.0 mph6.4 kmh 30.12 in1020.0 mb 0.00 in0.0 mm 0.00 in0.0 mm 0.01 in0.3 mm
03:15 PM 77.4°F25.2°C 66.6°F19.2°C 69% 1.2 mph SW1.9 kmh SW 4.0 mph6.4 kmh 30.12 in1020.0 mb 0.00 in0.0 mm 0.00 in0.0 mm 0.01 in0.3 mm
03:20 PM 77.4°F25.2°C 65.8°F18.8°C 67% 1.0 mph W1.6 kmh W 4.0 mph6.4 kmh 30.11 in1019.6 mb 0.00 in0.0 mm 0.00 in0.0 mm 0.01 in0.3 mm
03:25 PM 77.2°F25.1°C 65.6°F18.7°C 67% Calm Calm 4.0 mph6.4 kmh 30.11 in1019.6 mb 0.00 in0.0 mm 0.00 in0.0 mm 0.01 in0.3 mm
03:30 PM 77.4°F25.2°C 65.8°F18.8°C 67% 1.0 mph W1.6 kmh W 4.0 mph6.4 kmh 30.11 in1019.6 mb 0.00 in0.0 mm 0.00 in0.0 mm 0.01 in0.3 mm
03:35 PM 76.4°F24.7°C 66.1°F18.9°C 70% 7.9 mph NE12.7 kmh NE 18.0 mph29.0 kmh 30.12 in1020.0 mb 0.00 in0.0 mm 0.00 in0.0 mm 0.01 in0.3 mm
03:40 PM 72.8°F22.7°C 65.2°F18.4°C 77% 10.6 mph NE17.1 kmh NE 18.0 mph29.0 kmh 30.12 in1020.0 mb 0.00 in0.0 mm 0.00 in0.0 mm 0.01 in0.3 mm
03:45 PM 70.7°F21.5°C 64.6°F18.1°C 81% 10.7 mph NE17.2 kmh NE 18.0 mph29.0 kmh 30.12 in1020.0 mb 0.00 in0.0 mm 0.00 in0.0 mm 0.01 in0.3 mm
03:50 PM 70.1°F21.2°C 64.7°F18.2°C 83% 6.9 mph NE11.1 kmh NE 18.0 mph29.0 kmh 30.12 in1020.0 mb 0.00 in0.0 mm 0.00 in0.0 mm 0.01 in0.3 mm
03:55 PM 68.8°F20.4°C 63.1°F17.3°C 82% 11.3 mph NE18.2 kmh NE 18.0 mph29.0 kmh 30.13 in1020.3 mb 0.00 in0.0 mm 0.00 in0.0 mm 0.01 in0.3 mm
04:00 PM 67.0°F19.4°C 62.0°F16.7°C 84% 12.2 mph NE19.6 kmh NE 21.0 mph33.8 kmh 30.13 in1020.3 mb 0.00 in0.0 mm 0.00 in0.0 mm 0.01 in0.3 mm
04:05 PM 66.0°F18.9°C 61.7°F16.5°C 86% 7.0 mph NE11.3 kmh NE 21.0 mph33.8 kmh 30.13 in1020.3 mb 0.00 in0.0 mm 0.00 in0.0 mm 0.01 in0.3 mm
04:10 PM 64.9°F18.3°C 60.9°F16.1°C 87% 8.8 mph NE14.2 kmh NE 21.0 mph33.8 kmh 30.13 in1020.3 mb 0.00 in0.0 mm 0.00 in0.0 mm 0.01 in0.3 mm
04:15 PM 64.0°F17.8°C 60.4°F15.8°C 88% 9.7 mph NE15.6 kmh NE 21.0 mph33.8 kmh 30.13 in1020.3 mb 0.00 in0.0 mm 0.00 in0.0 mm 0.01 in0.3 mm
04:20 PM 63.4°F17.4°C 60.1°F15.6°C 89% 11.0 mph NE17.7 kmh NE 19.0 mph30.6 kmh 30.13 in1020.3 mb 0.00 in0.0 mm 0.00 in0.0 mm 0.01 in0.3 mm
04:25 PM 63.0°F17.2°C 59.7°F15.4°C 89% 9.0 mph NE14.5 kmh NE 19.0 mph30.6 kmh 30.14 in1020.7 mb 0.00 in0.0 mm 0.00 in0.0 mm 0.01 in0.3 mm
04:30 PM 62.8°F17.1°C 59.5°F15.3°C 89% 9.7 mph NE15.6 kmh NE 19.0 mph30.6 kmh 30.14 in1020.7 mb 0.00 in0.0 mm 0.00 in0.0 mm 0.01 in0.3 mm
04:35 PM 62.5°F16.9°C 59.2°F15.1°C 89% 6.1 mph NE9.8 kmh NE 19.0 mph30.6 kmh 30.15 in1021.0 mb 0.00 in0.0 mm 0.00 in0.0 mm 0.01 in0.3 mm
04:40 PM 62.2°F16.8°C 58.9°F14.9°C 89% 9.6 mph NE15.4 kmh NE 19.0 mph30.6 kmh 30.15 in1021.0 mb 0.00 in0.0 mm 0.00 in0.0 mm 0.01 in0.3 mm
04:45 PM 61.5°F16.4°C 58.2°F14.6°C 89% 10.9 mph NE17.5 kmh NE 17.0 mph27.4 kmh 30.15 in1021.0 mb 0.00 in0.0 mm 0.00 in0.0 mm 0.01 in0.3 mm
04:50 PM 61.1°F16.2°C 58.1°F14.5°C 90% 7.3 mph NE11.7 kmh NE 15.0 mph24.1 kmh 30.15 in1021.0 mb 0.00 in0.0 mm 0.00 in0.0 mm 0.01 in0.3 mm
04:55 PM 60.7°F15.9°C 57.7°F14.3°C 90% 6.3 mph NE10.1 kmh NE 15.0 mph24.1 kmh 30.15 in1021.0 mb 0.00 in0.0 mm 0.00 in0.0 mm 0.01 in0.3 mm
05:00 PM 60.0°F15.6°C 57.0°F13.9°C 90% 8.0 mph NE12.9 kmh NE 16.0 mph25.7 kmh 30.15 in1021.0 mb 0.00 in0.0 mm 0.00 in0.0 mm 0.01 in0.3 mm
05:04 PM 59.5°F15.3°C 56.5°F13.6°C 90% 8.6 mph NE13.8 kmh NE 16.0 mph25.7 kmh 30.15 in1021.0 mb 0.00 in0.0 mm 0.00 in0.0 mm 0.01 in0.3 mm
05:09 PM 58.9°F14.9°C 56.2°F13.4°C 91% 9.3 mph NE15.0 kmh NE 16.0 mph25.7 kmh 30.16 in1021.3 mb 0.00 in0.0 mm 0.00 in0.0 mm 0.01 in0.3 mm
05:14 PM 58.6°F14.8°C 55.9°F13.3°C 91% 6.3 mph NE10.1 kmh NE 16.0 mph25.7 kmh 30.15 in1021.0 mb 0.00 in0.0 mm 0.00 in0.0 mm 0.01 in0.3 mm
05:19 PM 58.4°F14.7°C 56.0°F13.3°C 92% 7.9 mph NE12.7 kmh NE 16.0 mph25.7 kmh 30.15 in1021.0 mb 0.00 in0.0 mm 0.00 in0.0 mm 0.01 in0.3 mm
05:24 PM 58.1°F14.5°C 55.8°F13.2°C 92% 8.3 mph NE13.4 kmh NE 16.0 mph25.7 kmh 30.15 in1021.0 mb 0.00 in0.0 mm 0.00 in0.0 mm 0.01 in0.3 mm
05:29 PM 57.6°F14.2°C 55.3°F12.9°C 92% 7.5 mph NE12.1 kmh NE 16.0 mph25.7 kmh 30.15 in1021.0 mb 0.00 in0.0 mm 0.00 in0.0 mm 0.01 in0.3 mm
05:34 PM 57.3°F14.1°C 55.3°F12.9°C 93% 5.7 mph NE9.2 kmh NE 16.0 mph25.7 kmh 30.16 in1021.3 mb 0.00 in0.0 mm 0.00 in0.0 mm 0.01 in0.3 mm
05:39 PM 57.1°F13.9°C 54.8°F12.7°C 92% 9.2 mph NE14.8 kmh NE 15.0 mph24.1 kmh 30.16 in1021.3 mb 0.00 in0.0 mm 0.00 in0.0 mm 0.01 in0.3 mm
05:44 PM 56.7°F13.7°C 54.7°F12.6°C 93% 8.7 mph NE14.0 kmh NE 19.0 mph30.6 kmh 30.16 in1021.3 mb 0.00 in0.0 mm 0.00 in0.0 mm 0.01 in0.3 mm
05:49 PM 56.5°F13.6°C 54.5°F12.5°C 93% 6.0 mph NE9.7 kmh NE 19.0 mph30.6 kmh 30.16 in1021.3 mb 0.00 in0.0 mm 0.00 in0.0 mm 0.01 in0.3 mm
05:54 PM 56.5°F13.6°C 54.8°F12.7°C 94% 5.2 mph NE8.4 kmh NE 19.0 mph30.6 kmh 30.16 in1021.3 mb 0.00 in0.0 mm 0.00 in0.0 mm 0.01 in0.3 mm
05:59 PM 56.4°F13.6°C 54.7°F12.6°C 94% 4.9 mph NE7.9 kmh NE 16.0 mph25.7 kmh 30.17 in1021.7 mb 0.00 in0.0 mm 0.00 in0.0 mm 0.01 in0.3 mm
06:04 PM 56.3°F13.5°C 54.6°F12.6°C 94% 6.2 mph NE10.0 kmh NE 14.0 mph22.5 kmh 30.17 in1021.7 mb 0.00 in0.0 mm 0.00 in0.0 mm 0.01 in0.3 mm
06:09 PM 56.1°F13.4°C 54.4°F12.4°C 94% 5.8 mph NE9.3 kmh NE 16.0 mph25.7 kmh 30.16 in1021.3 mb 0.00 in0.0 mm 0.00 in0.0 mm 0.01 in0.3 mm
06:14 PM 55.7°F13.2°C 54.0°F12.2°C 94% 8.1 mph NE13.0 kmh NE 16.0 mph25.7 kmh 30.17 in1021.7 mb 0.00 in0.0 mm 0.00 in0.0 mm 0.01 in0.3 mm
06:19 PM 55.5°F13.1°C 53.8°F12.1°C 94% 7.5 mph NE12.1 kmh NE 16.0 mph25.7 kmh 30.17 in1021.7 mb 0.00 in0.0 mm 0.00 in0.0 mm 0.01 in0.3 mm
06:24 PM 55.3°F12.9°C 53.6°F12.0°C 94% 5.5 mph NE8.9 kmh NE 16.0 mph25.7 kmh 30.17 in1021.7 mb 0.00 in0.0 mm 0.00 in0.0 mm 0.01 in0.3 mm
06:30 PM 55.1°F12.8°C 53.4°F11.9°C 94% 8.5 mph NE13.7 kmh NE 14.0 mph22.5 kmh 30.18 in1022.0 mb 0.00 in0.0 mm 0.00 in0.0 mm 0.01 in0.3 mm
06:35 PM 54.8°F12.7°C 53.1°F11.7°C 94% 7.9 mph NE12.7 kmh NE 16.0 mph25.7 kmh 30.18 in1022.0 mb 0.00 in0.0 mm 0.00 in0.0 mm 0.01 in0.3 mm
06:40 PM 54.8°F12.7°C 53.4°F11.9°C 95% 6.3 mph NE10.1 kmh NE 16.0 mph25.7 kmh 30.18 in1022.0 mb 0.00 in0.0 mm 0.00 in0.0 mm 0.01 in0.3 mm
06:45 PM 54.5°F12.5°C 52.8°F11.6°C 94% 8.7 mph NE14.0 kmh NE 16.0 mph25.7 kmh 30.18 in1022.0 mb 0.00 in0.0 mm 0.00 in0.0 mm 0.01 in0.3 mm
06:50 PM 54.4°F12.4°C 53.0°F11.7°C 95% 5.8 mph NE9.3 kmh NE 16.0 mph25.7 kmh 30.18 in1022.0 mb 0.00 in0.0 mm 0.00 in0.0 mm 0.01 in0.3 mm
06:55 PM 54.4°F12.4°C 53.0°F11.7°C 95% 6.4 mph NE10.3 kmh NE 14.0 mph22.5 kmh 30.18 in1022.0 mb 0.00 in0.0 mm 0.00 in0.0 mm 0.01 in0.3 mm
07:00 PM 54.4°F12.4°C 53.0°F11.7°C 95% 7.2 mph NE11.6 kmh NE 15.0 mph24.1 kmh 30.18 in1022.0 mb 0.00 in0.0 mm 0.00 in0.0 mm 0.01 in0.3 mm
07:05 PM 54.3°F12.4°C 52.9°F11.6°C 95% 9.2 mph NE14.8 kmh NE 15.0 mph24.1 kmh 30.18 in1022.0 mb 0.00 in0.0 mm 0.00 in0.0 mm 0.01 in0.3 mm
07:10 PM 54.3°F12.4°C 52.9°F11.6°C 95% 7.7 mph NE12.4 kmh NE 15.0 mph24.1 kmh 30.19 in1022.4 mb 0.00 in0.0 mm 0.00 in0.0 mm 0.01 in0.3 mm
07:15 PM 54.1°F12.3°C 52.7°F11.5°C 95% 3.6 mph NE5.8 kmh NE 15.0 mph24.1 kmh 30.20 in1022.7 mb 0.00 in0.0 mm 0.00 in0.0 mm 0.01 in0.3 mm
07:20 PM 53.9°F12.2°C 52.5°F11.4°C 95% 7.8 mph NE12.6 kmh NE 15.0 mph24.1 kmh 30.20 in1022.7 mb 0.00 in0.0 mm 0.00 in0.0 mm 0.01 in0.3 mm
07:25 PM 53.8°F12.1°C 52.4°F11.3°C 95% 8.9 mph NE14.3 kmh NE 16.0 mph25.7 kmh 30.20 in1022.7 mb 0.00 in0.0 mm 0.00 in0.0 mm 0.01 in0.3 mm
07:30 PM 53.7°F12.1°C 52.3°F11.3°C 95% 7.8 mph NE12.6 kmh NE 16.0 mph25.7 kmh 30.19 in1022.4 mb 0.00 in0.0 mm 0.00 in0.0 mm 0.01 in0.3 mm
07:35 PM 53.5°F11.9°C 52.1°F11.2°C 95% 8.5 mph NE13.7 kmh NE 16.0 mph25.7 kmh 30.19 in1022.4 mb 0.00 in0.0 mm 0.00 in0.0 mm 0.01 in0.3 mm
07:40 PM 53.5°F11.9°C 52.1°F11.2°C 95% 8.8 mph NE14.2 kmh NE 16.0 mph25.7 kmh 30.19 in1022.4 mb 0.00 in0.0 mm 0.00 in0.0 mm 0.01 in0.3 mm
07:45 PM 53.4°F11.9°C 52.3°F11.3°C 96% 7.4 mph NE11.9 kmh NE 14.0 mph22.5 kmh 30.19 in1022.4 mb 0.00 in0.0 mm 0.00 in0.0 mm 0.01 in0.3 mm
07:50 PM 53.3°F11.8°C 52.2°F11.2°C 96% 8.5 mph NE13.7 kmh NE 14.0 mph22.5 kmh 30.20 in1022.7 mb 0.00 in0.0 mm 0.00 in0.0 mm 0.01 in0.3 mm
07:55 PM 53.3°F11.8°C 52.2°F11.2°C 96% 5.9 mph NE9.5 kmh NE 14.0 mph22.5 kmh 30.20 in1022.7 mb 0.00 in0.0 mm 0.00 in0.0 mm 0.01 in0.3 mm
08:00 PM 53.2°F11.8°C 52.1°F11.2°C 96% 6.5 mph NE10.5 kmh NE 14.0 mph22.5 kmh 30.20 in1022.7 mb 0.00 in0.0 mm 0.00 in0.0 mm 0.01 in0.3 mm
08:05 PM 53.0°F11.7°C 51.9°F11.1°C 96% 7.4 mph NE11.9 kmh NE 14.0 mph22.5 kmh 30.21 in1023.0 mb 0.00 in0.0 mm 0.00 in0.0 mm 0.01 in0.3 mm
08:10 PM 53.0°F11.7°C 51.9°F11.1°C 96% 8.4 mph NE13.5 kmh NE 14.0 mph22.5 kmh 30.21 in1023.0 mb 0.00 in0.0 mm 0.00 in0.0 mm 0.01 in0.3 mm
08:15 PM 52.9°F11.6°C 51.8°F11.0°C 96% 7.3 mph NE11.7 kmh NE 15.0 mph24.1 kmh 30.21 in1023.0 mb 0.00 in0.0 mm 0.00 in0.0 mm 0.01 in0.3 mm
08:20 PM 52.9°F11.6°C 51.8°F11.0°C 96% 5.5 mph NE8.9 kmh NE 15.0 mph24.1 kmh 30.21 in1023.0 mb 0.00 in0.0 mm 0.00 in0.0 mm 0.01 in0.3 mm
08:25 PM 53.0°F11.7°C 51.9°F11.1°C 96% 9.4 mph NE15.1 kmh NE 15.0 mph24.1 kmh 30.21 in1023.0 mb 0.00 in0.0 mm 0.00 in0.0 mm 0.01 in0.3 mm
08:30 PM 52.9°F11.6°C 51.8°F11.0°C 96% 5.4 mph NE8.7 kmh NE 16.0 mph25.7 kmh 30.21 in1023.0 mb 0.00 in0.0 mm 0.00 in0.0 mm 0.01 in0.3 mm
08:35 PM 52.8°F11.6°C 51.7°F10.9°C 96% 7.7 mph NE12.4 kmh NE 16.0 mph25.7 kmh 30.22 in1023.4 mb 0.00 in0.0 mm 0.00 in0.0 mm 0.01 in0.3 mm
08:40 PM 52.7°F11.5°C 51.6°F10.9°C 96% 6.3 mph NE10.1 kmh NE 16.0 mph25.7 kmh 30.22 in1023.4 mb 0.00 in0.0 mm 0.00 in0.0 mm 0.01 in0.3 mm
08:45 PM 52.7°F11.5°C 51.6°F10.9°C 96% 8.2 mph NE13.2 kmh NE 16.0 mph25.7 kmh 30.22 in1023.4 mb 0.00 in0.0 mm 0.00 in0.0 mm 0.01 in0.3 mm
08:50 PM 52.7°F11.5°C 51.6°F10.9°C 96% 7.3 mph NE11.7 kmh NE 14.0 mph22.5 kmh 30.22 in1023.4 mb 0.00 in0.0 mm 0.00 in0.0 mm 0.01 in0.3 mm
08:55 PM 52.6°F11.4°C 51.5°F10.8°C 96% 7.6 mph NE12.2 kmh NE 13.0 mph20.9 kmh 30.23 in1023.7 mb 0.00 in0.0 mm 0.00 in0.0 mm 0.01 in0.3 mm
09:00 PM 52.6°F11.4°C 51.5°F10.8°C 96% 5.4 mph NE8.7 kmh NE 13.0 mph20.9 kmh 30.23 in1023.7 mb 0.00 in0.0 mm 0.00 in0.0 mm 0.01 in0.3 mm
09:05 PM 52.6°F11.4°C 51.8°F11.0°C 97% 6.3 mph NE10.1 kmh NE 13.0 mph20.9 kmh 30.23 in1023.7 mb 0.00 in0.0 mm 0.00 in0.0 mm 0.01 in0.3 mm
09:10 PM 52.5°F11.4°C 51.6°F10.9°C 97% 4.9 mph NE7.9 kmh NE 13.0 mph20.9 kmh 30.23 in1023.7 mb 0.00 in0.0 mm 0.00 in0.0 mm 0.01 in0.3 mm
09:15 PM 52.5°F11.4°C 51.7°F10.9°C 97% 5.1 mph NE8.2 kmh NE 12.0 mph19.3 kmh 30.23 in1023.7 mb 0.00 in0.0 mm 0.00 in0.0 mm 0.01 in0.3 mm
09:20 PM 52.4°F11.3°C 51.5°F10.8°C 97% 7.8 mph NE12.6 kmh NE 13.0 mph20.9 kmh 30.23 in1023.7 mb 0.00 in0.0 mm 0.00 in0.0 mm 0.01 in0.3 mm
09:25 PM 52.4°F11.3°C 51.5°F10.8°C 97% 8.9 mph NE14.3 kmh NE 14.0 mph22.5 kmh 30.23 in1023.7 mb 0.00 in0.0 mm 0.00 in0.0 mm 0.01 in0.3 mm
09:30 PM 52.2°F11.2°C 51.3°F10.7°C 97% 9.2 mph ENE14.8 kmh ENE 15.0 mph24.1 kmh 30.23 in1023.7 mb 0.00 in0.0 mm 0.00 in0.0 mm 0.01 in0.3 mm
09:35 PM 52.1°F11.2°C 51.2°F10.7°C 97% 8.8 mph NE14.2 kmh NE 15.0 mph24.1 kmh 30.23 in1023.7 mb 0.00 in0.0 mm 0.00 in0.0 mm 0.01 in0.3 mm
09:40 PM 52.0°F11.1°C 51.1°F10.6°C 97% 6.6 mph ENE10.6 kmh ENE 15.0 mph24.1 kmh 30.23 in1023.7 mb 0.00 in0.0 mm 0.00 in0.0 mm 0.01 in0.3 mm
09:45 PM 52.0°F11.1°C 51.1°F10.6°C 97% 8.9 mph ENE14.3 kmh ENE 15.0 mph24.1 kmh 30.22 in1023.4 mb 0.00 in0.0 mm 0.00 in0.0 mm 0.01 in0.3 mm
09:50 PM 52.0°F11.1°C 51.2°F10.7°C 97% 9.1 mph NE14.6 kmh NE 14.0 mph22.5 kmh 30.23 in1023.7 mb 0.00 in0.0 mm 0.00 in0.0 mm 0.01 in0.3 mm
09:55 PM 52.0°F11.1°C 51.2°F10.7°C 97% 6.5 mph NE10.5 kmh NE 14.0 mph22.5 kmh 30.23 in1023.7 mb 0.00 in0.0 mm 0.00 in0.0 mm 0.01 in0.3 mm
10:00 PM 52.0°F11.1°C 51.2°F10.7°C 97% 7.2 mph NE11.6 kmh NE 14.0 mph22.5 kmh 30.23 in1023.7 mb 0.00 in0.0 mm 0.00 in0.0 mm 0.01 in0.3 mm
10:04 PM 52.0°F11.1°C 51.2°F10.7°C 97% 6.3 mph NE10.1 kmh NE 14.0 mph22.5 kmh 30.23 in1023.7 mb 0.00 in0.0 mm 0.00 in0.0 mm 0.01 in0.3 mm
10:09 PM 52.0°F11.1°C 51.4°F10.8°C 98% 6.2 mph ENE10.0 kmh ENE 14.0 mph22.5 kmh 30.22 in1023.4 mb 0.00 in0.0 mm 0.00 in0.0 mm 0.01 in0.3 mm
10:14 PM 51.9°F11.1°C 51.3°F10.7°C 98% 3.6 mph ENE5.8 kmh ENE 14.0 mph22.5 kmh 30.22 in1023.4 mb 0.00 in0.0 mm 0.00 in0.0 mm 0.01 in0.3 mm
10:19 PM 52.0°F11.1°C 51.4°F10.8°C 98% 5.0 mph NE8.0 kmh NE 14.0 mph22.5 kmh 30.23 in1023.7 mb 0.00 in0.0 mm 0.00 in0.0 mm 0.01 in0.3 mm
10:24 PM 51.9°F11.1°C 51.3°F10.7°C 98% 3.9 mph ENE6.3 kmh ENE 14.0 mph22.5 kmh 30.23 in1023.7 mb 0.00 in0.0 mm 0.00 in0.0 mm 0.01 in0.3 mm
10:29 PM 51.9°F11.1°C 51.3°F10.7°C 98% 6.3 mph NE10.1 kmh NE 14.0 mph22.5 kmh 30.23 in1023.7 mb 0.00 in0.0 mm 0.00 in0.0 mm 0.01 in0.3 mm
10:34 PM 51.9°F11.1°C 51.3°F10.7°C 98% 2.4 mph ENE3.9 kmh ENE 11.0 mph17.7 kmh 30.23 in1023.7 mb 0.00 in0.0 mm 0.00 in0.0 mm 0.01 in0.3 mm
10:39 PM 51.9°F11.1°C 51.3°F10.7°C 98% 6.1 mph NE9.8 kmh NE 10.0 mph16.1 kmh 30.23 in1023.7 mb 0.00 in0.0 mm 0.00 in0.0 mm 0.01 in0.3 mm
10:44 PM 52.0°F11.1°C 51.5°F10.8°C 98% 1.9 mph ENE3.1 kmh ENE 10.0 mph16.1 kmh 30.22 in1023.4 mb 0.00 in0.0 mm 0.00 in0.0 mm 0.01 in0.3 mm
10:49 PM 52.0°F11.1°C 51.5°F10.8°C 98% 2.5 mph ENE4.0 kmh ENE 10.0 mph16.1 kmh 30.23 in1023.7 mb 0.00 in0.0 mm 0.00 in0.0 mm 0.01 in0.3 mm
10:54 PM 51.9°F11.1°C 51.4°F10.8°C 98% 5.2 mph ENE8.4 kmh ENE 10.0 mph16.1 kmh 30.23 in1023.7 mb 0.00 in0.0 mm 0.00 in0.0 mm 0.01 in0.3 mm
10:59 PM 51.9°F11.1°C 51.3°F10.7°C 98% 3.1 mph ENE5.0 kmh ENE 10.0 mph16.1 kmh 30.24 in1024.0 mb 0.00 in0.0 mm 0.00 in0.0 mm 0.01 in0.3 mm
11:04 PM 51.9°F11.1°C 51.3°F10.7°C 98% 3.9 mph NE6.3 kmh NE 10.0 mph16.1 kmh 30.24 in1024.0 mb 0.00 in0.0 mm 0.00 in0.0 mm 0.01 in0.3 mm
11:09 PM 51.9°F11.1°C 51.3°F10.7°C 98% 4.0 mph NE6.4 kmh NE 10.0 mph16.1 kmh 30.24 in1024.0 mb 0.00 in0.0 mm 0.00 in0.0 mm 0.01 in0.3 mm
11:14 PM 51.9°F11.1°C 51.3°F10.7°C 98% 4.2 mph NE6.8 kmh NE 8.0 mph12.9 kmh 30.24 in1024.0 mb 0.00 in0.0 mm 0.00 in0.0 mm 0.01 in0.3 mm
11:19 PM 52.0°F11.1°C 51.4°F10.8°C 98% 4.2 mph NE6.8 kmh NE 8.0 mph12.9 kmh 30.23 in1023.7 mb 0.00 in0.0 mm 0.00 in0.0 mm 0.01 in0.3 mm
11:24 PM 51.9°F11.1°C 51.3°F10.7°C 98% 5.3 mph NE8.5 kmh NE 10.0 mph16.1 kmh 30.23 in1023.7 mb 0.00 in0.0 mm 0.00 in0.0 mm 0.01 in0.3 mm
11:29 PM 52.0°F11.1°C 51.4°F10.8°C 98% 2.0 mph ENE3.2 kmh ENE 10.0 mph16.1 kmh 30.23 in1023.7 mb 0.00 in0.0 mm 0.00 in0.0 mm 0.01 in0.3 mm
11:34 PM 52.0°F11.1°C 51.4°F10.8°C 98% 2.5 mph NE4.0 kmh NE 10.0 mph16.1 kmh 30.23 in1023.7 mb 0.00 in0.0 mm 0.00 in0.0 mm 0.01 in0.3 mm
11:39 PM 52.0°F11.1°C 51.5°F10.8°C 98% 3.2 mph NE5.1 kmh NE 10.0 mph16.1 kmh 30.23 in1023.7 mb 0.00 in0.0 mm 0.00 in0.0 mm 0.01 in0.3 mm
11:44 PM 52.0°F11.1°C 51.5°F10.8°C 98% 2.0 mph NE3.2 kmh NE 8.0 mph12.9 kmh 30.23 in1023.7 mb 0.00 in0.0 mm 0.00 in0.0 mm 0.01 in0.3 mm
11:49 PM 52.0°F11.1°C 51.4°F10.8°C 98% 3.6 mph NE5.8 kmh NE 8.0 mph12.9 kmh 30.22 in1023.4 mb 0.00 in0.0 mm 0.00 in0.0 mm 0.01 in0.3 mm
11:54 PM 52.0°F11.1°C 51.4°F10.8°C 98% 4.8 mph NE7.7 kmh NE 8.0 mph12.9 kmh 30.22 in1023.4 mb 0.00 in0.0 mm 0.00 in0.0 mm 0.01 in0.3 mm
11:59 PM 52.0°F11.1°C 51.4°F10.8°C 98% 3.9 mph NE6.3 kmh NE 8.0 mph12.9 kmh 30.22 in1023.4 mb 0.00 in0.0 mm 0.00 in0.0 mm 0.01 in0.3 mm